METAR Data
IDs: Format: Raw Decoded Include TAF

Data at: 2133 UTC 01 Oct 2022

LIBA 012055Z 24006KT CAVOK 16/11 Q1019 RMK SKC VIS MIN 9999 WIND THR11 23006KT WIND THR29 /////KT BLU

TAF LIBA 012000Z 0121/0206 27010KT 9999 FEW030
  BECMG 0122/0123 CAVOK


LIBC 011750Z 23013KT CAVOK 23/14 Q1017

TAF LIBC 011100Z 0112/0212 VRB07KT 9999 FEW020

LIBD 012120Z AUTO 28011KT 9999 NCD 19/10 Q1018

TAF LIBD 011700Z 0118/0218 29012KT 9999 SCT040
  TEMPO 0118/0120 4000 TSRA
  BECMG 0208/0210 03010KT
  BECMG 0216/0218 VRB05KT


LIBF 012050Z 24007KT CAVOK 15/11 Q1019

TAF LIBF 011700Z 0118/0218 25018G30KT 9999 SCT040
  BECMG 0118/0120 VRB05KT


LIBG 011750Z 30005KT 260V330 9999 SCT020 23/15 Q1015

TAF LIBG 011400Z 0115/0124 18008KT 9999 SCT040
  TEMPO 0115/0120 TSRA
  BECMG 0118/0120 34012KT


LIBP 012120Z AUTO 27003KT 9999 NCD 15/13 Q1018

TAF LIBP 011700Z 0118/0218 03010KT 9999 BKN040
  BECMG 0118/0120 24012KT
  BECMG 0200/0202 VRB05KT


LIBR 012120Z 29008KT CAVOK 20/11 Q1017

TAF LIBR 011700Z 0118/0218 33015KT 9999 SCT040
  TEMPO 0118/0121 4000 TSRA


LIBV 012055Z 28011KT CAVOK 17/10 Q1017 RMK FEW FEW100 VIS MIN 9999 WIND THR32 30012KT WIND THR14 29012KT BLU

TAF LIBV 012000Z 0121/0206 33010KT CAVOK

LICA 012120Z AUTO 27020KT 9999 BKN042/// 22/14 Q1021

TAF LICA 011700Z 0118/0218 28022G32KT 9999 SCT020
  TEMPO 0118/0121 SHRA
  BECMG 0122/0124 28014KT
  BECMG 0216/0218 VRB05KT


LICC 012120Z 24016KT CAVOK 21/12 Q1020

TAF LICC 011700Z 0118/0218 26014KT CAVOK
  BECMG 0120/0122 VRB05KT
  BECMG 0209/0211 09010KT
  BECMG 0216/0218 VRB05KT


LICD 012120Z AUTO 34016KT 9999 NCD 23/15 Q1024

TAF LICD 011700Z 0118/0218 34020G30KT 9999 SCT020
  BECMG 0120/0122 34018KT


LICG 011750Z 33013KT CAVOK 21/14 Q1024

TAF LICG 011400Z 0115/0124 34018G28KT 9999 FEW020

LICJ 012120Z 31010KT CAVOK 23/12 Q1024

TAF LICJ 011700Z 0118/0218 31015KT 9999 SCT040
  BECMG 0204/0206 31005KT
  BECMG 0210/0212 01010KT


LICR 012120Z AUTO 36017G27KT 9999 BKN045/// 22/13 Q1022

TAF LICR 011700Z 0118/0218 35018G30KT 9999 SCT030
  TEMPO 0118/0121 4000 SHRA
  TEMPO 0210/0215 SHRA


LICT 012055Z 33012KT 9999 FEW022 24/14 Q1024 RMK FEW VIS MIN 9999 WIND THR13 34015KT BLU

TAF LICT 012000Z 0121/0206 33010KT 9999 FEW025

LICZ 012055Z /////KT 9999 FEW020 21/20 Q1019

TAF LICZ 011700Z 0118/0218 29013KT 9999 FEW025
  BECMG 0201/0203 27006KT CAVOK
  BECMG 0208/0210 10010KT


LIEA 012120Z VRB01KT 9999 FEW030 18/15 Q1025

TAF LIEA 011700Z 0118/0218 29012KT 9999 SCT030
  BECMG 0120/0122 VRB05KT
  BECMG 0206/0208 29013KT
  BECMG 0216/0218 VRB05KT


LIEE 012120Z 02005KT CAVOK 19/13 Q1025

TAF LIEE 011700Z 0118/0218 30010KT 9999 SCT040
  BECMG 0206/0208 34018G28KT
  BECMG 0216/0218 34008KT


LIED 012055Z 02002KT 9999 FEW040 18/13 Q1024 RMK FEW VIS MIN 9999 WIND THR35 /////KT WIND THR17 05001KT BLU

TAF LIED 012000Z 0121/0206 30005KT 9999 SCT030

LIEO 012120Z 24012G23KT 210V270 CAVOK 21/13 Q1022

TAF LIEO 011700Z 0118/0218 28020G30KT CAVOK
  BECMG 0122/0124 28016KT
  BECMG 0207/0209 28020G30KT
  BECMG 0214/0216 26014KT


LIPR 012120Z AUTO 18001KT 9999 NCD 13/11 Q1017

TAF LIPR 011700Z 0118/0218 23008KT 9999 FEW050

LIPY 012120Z AUTO 22009KT 9999 NCD 16/10 Q1018

TAF LIPY 011700Z 0118/0218 24009KT 9999 FEW030

LIRA 012120Z VRB02KT CAVOK 17/12 Q1021

TAF LIRA 011700Z 0118/0218 29010KT 9999 FEW030
  BECMG 0119/0121 04006KT


LIRE 012055Z 02005KT CAVOK 17/15 Q1021 RMK SKC VIS MIN 9999 WIND THR13 02004KT WIND THR31 /////KT BLU

TAF LIRE 012000Z 0121/0206 VRB05KT CAVOK

LIRF 012120Z 02003KT CAVOK 15/13 Q1021 NOSIG

TAF LIRF 011700Z 0118/0224 33012KT CAVOK
  BECMG 0121/0123 06007KT
  BECMG 0212/0214 16010KT
  BECMG 0220/0222 07008KT


No METAR found for LIRG
No TAF found for LIRG

No METAR found for LIRH
No TAF found for LIRH

No METAR found for LIRL
No TAF found for LIRL

LIRM 012055Z 27003KT 9999 FEW030 17/13 Q1020 RMK FEW VIS MIN 9999 WIND THR06 30005KT BLU

TAF LIRM 012000Z 0121/0206 VRB05KT CAVOK

LIRN 012120Z 33005KT CAVOK 18/14 Q1021 NOSIG

TAF LIRN 011700Z 0118/0218 31010KT 9999 FEW030
  BECMG 0119/0121 VRB05KT
  BECMG 0210/0212 26010KT
  BECMG 0215/0217 VRB04KT


LIRP 012115Z 23010KT 9999 SCT025 BKN040 18/14 Q1021 NOSIG

TAF LIRP 011700Z 0118/0218 25012KT 9999 SCT030
  BECMG 0123/0201 15008KT
  TEMPO 0204/0206 VRB03KT 5000 BR FEW010
  BECMG 0211/0213 25010KT 9999 BKN025


LIRQ 012120Z 10005KT 9999 SCT025 BKN050 16/13 Q1021

TAF LIRQ 011700Z 0118/0218 26010KT 9999 SCT020
  BECMG 0119/0121 VRB05KT


LIRS 012055Z 07002KT CAVOK 15/13 Q1021 RMK SKC VIS MIN 9999 WIND THR03 09004KT WIND THR21 02003KT BLU

TAF LIRS 012000Z 0121/0206 VRB05KT 9999 FEW040

LIRZ 012120Z AUTO 14004KT 9999 FEW033/// 15/11 Q1022

TAF LIRZ 011700Z 0118/0218 26010KT 9999 SCT030
  BECMG 0118/0120 VRB05KT
  BECMG 0211/0213 26010KT


LMML 012045Z 32016KT CAVOK 23/17 Q1022 NOSIG

TAF LMML 011700Z 0118/0218 32015KT 9999 FEW020
  BECMG 0115/0118 32020G30KT
  BECMG 0206/0209 32015KT


DTTA 012100Z 27007KT 9999 FEW026 21/12 Q1026

TAF DTTA 011700Z 0118/0218 32012KT 9999 FEW026
  BECMG 0122/0124 25006KT
  BECMG 0210/0212 31010KT


DTTJ 012100Z 03017KT 9999 FEW030 25/17 Q1025 NOSIG

TAF DTTJ 011700Z 0118/0218 02019KT 9999 FEW030
  BECMG 0209/0211 35008KT